createdAt,value
2023-01-19T00:00:13.122Z,5.94
2023-01-19T00:02:43.081Z,5.96
2023-01-19T00:05:14.031Z,5.87
2023-01-19T00:07:44.316Z,6.08
2023-01-19T00:10:14.824Z,6.28
2023-01-19T00:12:45.439Z,6.21
2023-01-19T00:15:15.949Z,6.34
2023-01-19T00:17:46.404Z,6.77
2023-01-19T00:20:16.514Z,6.44
2023-01-19T00:22:46.731Z,6
2023-01-19T00:25:17.111Z,5.82
2023-01-19T00:27:47.785Z,5.86
2023-01-19T00:30:18.583Z,6.03
2023-01-19T00:32:48.686Z,6.19
2023-01-19T00:35:19.432Z,6.16
2023-01-19T00:37:49.589Z,6.21
2023-01-19T00:40:20.196Z,6.16
2023-01-19T00:42:51.036Z,6.27
2023-01-19T00:45:21.514Z,6.52
2023-01-19T00:47:52.241Z,6.43
2023-01-19T00:50:23.013Z,6.48
2023-01-19T00:52:53.233Z,6.58
2023-01-19T00:55:23.699Z,6.27
2023-01-19T00:57:54.433Z,6.36
2023-01-19T01:00:25.104Z,6.4
2023-01-19T01:02:55.525Z,6.27
2023-01-19T01:05:25.726Z,6.37
2023-01-19T01:07:56.279Z,6.32
2023-01-19T01:10:26.329Z,6.32
2023-01-19T01:12:58.125Z,6.47
2023-01-19T01:15:27.608Z,6.27
2023-01-19T01:17:58.364Z,6.32
2023-01-19T01:20:28.781Z,6.4
2023-01-19T01:22:59.142Z,6.4
2023-01-19T01:25:28.933Z,6.48
2023-01-19T01:27:58.947Z,6.53
2023-01-19T01:30:29.336Z,6.38
2023-01-19T01:32:59.786Z,6.21
2023-01-19T01:35:29.934Z,6.28
2023-01-19T01:38:00.637Z,6.41
2023-01-19T01:40:31.391Z,6.24
2023-01-19T01:43:01.994Z,6.37
2023-01-19T01:45:32.325Z,6.23
2023-01-19T01:48:02.484Z,6.28
2023-01-19T01:50:32.607Z,6.2
2023-01-19T01:53:07.691Z,6.34
2023-01-19T01:55:33.819Z,6.33
2023-01-19T01:58:04.109Z,6.24
2023-01-19T02:00:34.497Z,6.06
2023-01-19T02:03:05.161Z,6.13
2023-01-19T02:05:35.811Z,6.01
2023-01-19T02:08:06.569Z,5.91
2023-01-19T02:10:37.180Z,5.98
2023-01-19T02:13:07.446Z,6.08
2023-01-19T02:15:37.472Z,6.02
2023-01-19T02:18:08.039Z,6.22
2023-01-19T02:20:38.102Z,6.04
2023-01-19T02:23:08.426Z,6.06
2023-01-19T02:25:38.395Z,6.15
2023-01-19T02:28:08.654Z,6.03
2023-01-19T02:30:38.756Z,6.2
2023-01-19T02:33:09.387Z,6.19
2023-01-19T02:35:39.329Z,6.37
2023-01-19T02:38:09.301Z,6.34
2023-01-19T02:40:39.708Z,7.74
2023-01-19T02:43:09.774Z,6.29
2023-01-19T02:45:40.358Z,5.87
2023-01-19T02:48:10.334Z,5.83
2023-01-19T02:50:40.963Z,5.47
2023-01-19T02:53:10.988Z,5.8
2023-01-19T02:55:40.967Z,5.81
2023-01-19T02:58:11.440Z,5.78
2023-01-19T03:00:41.709Z,5.72
2023-01-19T03:03:11.902Z,6.12
2023-01-19T03:05:42.387Z,5.82
2023-01-19T03:08:12.618Z,6.24
2023-01-19T03:10:42.842Z,6.14
2023-01-19T03:13:13.493Z,6.27
2023-01-19T03:15:43.832Z,6.15
2023-01-19T03:18:14.491Z,6.12
2023-01-19T03:20:44.716Z,6.06
2023-01-19T03:23:14.832Z,6
2023-01-19T03:25:44.973Z,6.25
2023-01-19T03:28:15.506Z,5.95
2023-01-19T03:30:45.665Z,6.03
2023-01-19T03:33:16.229Z,6.22
2023-01-19T03:35:46.475Z,6.05
2023-01-19T03:38:17.145Z,5.97
2023-01-19T03:40:47.482Z,5.92
2023-01-19T03:43:18.246Z,5.79
2023-01-19T03:45:48.360Z,5.86
2023-01-19T03:48:18.621Z,5.95
2023-01-19T03:50:49.286Z,5.93
2023-01-19T03:53:19.494Z,6.16
2023-01-19T03:55:50.081Z,5.92
2023-01-19T03:58:20.702Z,6.09
2023-01-19T04:00:51.791Z,6.23
2023-01-19T04:03:21.828Z,5.91
2023-01-19T04:05:52.454Z,5.76
2023-01-19T04:08:23.270Z,5.96
2023-01-19T04:10:53.345Z,6.2
2023-01-19T04:13:23.827Z,5.97
2023-01-19T04:15:54.022Z,6
2023-01-19T04:18:24.314Z,6.13
2023-01-19T04:20:54.895Z,5.93
2023-01-19T04:23:25.658Z,6
2023-01-19T04:25:56.024Z,6.01
2023-01-19T04:28:26.571Z,5.63
2023-01-19T04:30:57.195Z,6.1
2023-01-19T04:33:27.671Z,6.15
2023-01-19T04:35:58.329Z,6.2
2023-01-19T04:38:28.605Z,6.04
2023-01-19T04:40:58.828Z,6.37
2023-01-19T04:43:29.335Z,6.09
2023-01-19T04:45:59.638Z,6.07
2023-01-19T04:48:29.759Z,6.6
2023-01-19T04:51:00.605Z,6.35
2023-01-19T04:53:30.724Z,6.52
2023-01-19T04:56:01.625Z,5.87
2023-01-19T04:58:31.859Z,5.81
2023-01-19T05:01:02.434Z,5.73
2023-01-19T05:03:32.415Z,5.66
2023-01-19T05:06:03.020Z,5.8
2023-01-19T05:08:33.734Z,5.73
2023-01-19T05:11:04.046Z,5.83
2023-01-19T05:13:34.257Z,5.86
2023-01-19T05:16:04.956Z,6.32
2023-01-19T05:18:35.123Z,6.29
2023-01-19T05:21:05.767Z,5.77
2023-01-19T05:23:36.583Z,6.11
2023-01-19T05:26:08.365Z,6.18
2023-01-19T05:28:36.851Z,6.12
2023-01-19T05:31:07.499Z,6
2023-01-19T05:33:37.399Z,5.81
2023-01-19T05:36:07.507Z,6.21
2023-01-19T05:38:37.692Z,6.4
2023-01-19T05:41:08.298Z,5.61
2023-01-19T05:43:38.505Z,6.39
2023-01-19T05:46:08.545Z,6.12
2023-01-19T05:48:39.039Z,5.96
2023-01-19T05:51:09.175Z,5.94
2023-01-19T05:53:39.628Z,5.96
2023-01-19T05:56:10.212Z,5.75
2023-01-19T05:58:41.009Z,6.16
2023-01-19T06:01:11.652Z,6.23
2023-01-19T06:03:41.511Z,5.95
2023-01-19T06:06:12.194Z,6.09
2023-01-19T06:08:43.055Z,6.36
2023-01-19T06:11:13.867Z,6.67
2023-01-19T06:13:44.758Z,6.69
2023-01-19T06:16:15.576Z,6.89
2023-01-19T06:18:45.490Z,6.39
2023-01-19T06:21:15.825Z,5.77
2023-01-19T06:23:45.712Z,5.51
2023-01-19T06:26:16.583Z,5.69
2023-01-19T06:28:47.406Z,5.7
2023-01-19T06:31:18.278Z,5.67
2023-01-19T06:33:49.070Z,5.28
2023-01-19T06:36:19.971Z,5.42
2023-01-19T06:38:50.752Z,5.45
2023-01-19T06:41:21.383Z,5.67
2023-01-19T06:43:51.256Z,5.68
2023-01-19T06:46:22.123Z,5.76
2023-01-19T06:48:52.667Z,5.67
2023-01-19T06:51:23.028Z,6.61
2023-01-19T06:53:53.540Z,5.61
2023-01-19T06:56:24.538Z,5.34
2023-01-19T06:58:55.297Z,5.35
2023-01-19T07:01:26.106Z,5.1
2023-01-19T07:03:56.848Z,5.12
2023-01-19T07:06:27.721Z,5.41
2023-01-19T07:08:58.211Z,5.64
2023-01-19T07:14:00.999Z,5.71
2023-01-19T07:19:06.103Z,5.67
2023-01-19T07:21:41.470Z,6.12
2023-01-19T07:24:01.866Z,5.75
2023-01-19T07:26:33.139Z,5.8
2023-01-19T07:29:03.518Z,6.04
2023-01-19T07:31:33.918Z,5.67
2023-01-19T07:34:04.563Z,5.65
2023-01-19T07:36:34.737Z,5.49
2023-01-19T07:39:05.636Z,5.54
2023-01-19T07:41:44.403Z,5.46
2023-01-19T07:44:07.075Z,5.35
2023-01-19T07:46:37.868Z,5.26
2023-01-19T07:49:08.693Z,5.22
2023-01-19T07:51:39.487Z,5.24
2023-01-19T07:54:10.865Z,5.3
2023-01-19T07:59:11.915Z,5.05
2023-01-19T08:01:42.835Z,5.05
2023-01-19T08:04:14.114Z,5.28
2023-01-19T08:06:44.299Z,5.01
2023-01-19T08:09:15.098Z,5.23
2023-01-19T08:11:46.213Z,5.41
2023-01-19T08:14:16.722Z,5.5
2023-01-19T08:16:47.607Z,5.56
2023-01-19T08:19:18.326Z,5.42
2023-01-19T08:21:49.107Z,5.59
2023-01-19T08:31:52.471Z,5.33
2023-01-19T08:34:23.142Z,5.25
2023-01-19T08:39:24.730Z,5.13
2023-01-19T08:41:55.514Z,5.28
2023-01-19T08:44:31.912Z,5.36
2023-01-19T08:46:57.159Z,5.31
2023-01-19T08:54:29.803Z,5.09
2023-01-19T08:57:05.751Z,5.03
2023-01-19T08:59:30.469Z,4.7
2023-01-19T09:02:06.620Z,5.16
2023-01-19T09:04:32.028Z,5.11
2023-01-19T09:07:03.297Z,5.13
2023-01-19T09:09:33.988Z,5.16
2023-01-19T09:12:04.413Z,5.22
2023-01-19T09:14:40.251Z,5.32
2023-01-19T09:17:11.049Z,5.23
2023-01-19T09:27:09.153Z,5.13
2023-01-19T09:29:39.936Z,5.23
2023-01-19T09:32:10.704Z,5.14
2023-01-19T09:34:41.484Z,5.04
2023-01-19T09:37:12.350Z,5.03
2023-01-19T09:39:43.124Z,5.09
2023-01-19T09:42:13.818Z,5.05
2023-01-19T09:44:44.569Z,5.06
2023-01-19T09:47:15.374Z,4.99
2023-01-19T09:49:46.133Z,4.96
2023-01-19T09:52:16.908Z,5.02
2023-01-19T09:54:47.341Z,4.88
2023-01-19T09:57:18.181Z,4.96
2023-01-19T09:59:48.903Z,4.85
2023-01-19T10:02:19.712Z,4.81
2023-01-19T10:04:50.467Z,4.79
2023-01-19T10:07:21.259Z,4.84
2023-01-19T10:09:52.047Z,5.13
2023-01-19T10:12:22.931Z,4.96
2023-01-19T10:14:53.595Z,5.23
2023-01-19T10:17:24.388Z,4.98
2023-01-19T10:19:55.140Z,5
2023-01-19T10:22:25.938Z,5.05
2023-01-19T10:24:56.736Z,5.2
2023-01-19T10:27:32.467Z,4.92
2023-01-19T10:29:58.181Z,4.77
2023-01-19T10:32:28.923Z,4.84
2023-01-19T10:34:59.683Z,4.58
2023-01-19T10:37:30.460Z,4.51
2023-01-19T10:40:01.151Z,4.5
2023-01-19T10:42:31.941Z,4.5
2023-01-19T10:45:02.658Z,4.52
2023-01-19T10:47:33.381Z,4.43
2023-01-19T10:50:04.180Z,4.39
2023-01-19T10:52:34.894Z,4.33
2023-01-19T10:55:05.651Z,4.45
2023-01-19T10:57:36.372Z,4.36
2023-01-19T11:00:07.093Z,4.42
2023-01-19T11:02:37.995Z,4.27
2023-01-19T11:05:08.553Z,4.15
2023-01-19T11:07:39.410Z,4.26
2023-01-19T11:10:10.043Z,4.15
2023-01-19T11:12:40.751Z,4.24
2023-01-19T11:15:11.499Z,4.04
2023-01-19T11:17:42.344Z,3.9
2023-01-19T11:20:12.950Z,4.07
2023-01-19T11:22:43.697Z,4.13
2023-01-19T11:25:14.416Z,3.82
2023-01-19T11:27:45.115Z,3.85
2023-01-19T11:30:15.858Z,4
2023-01-19T11:32:46.583Z,3.86
2023-01-19T11:35:17.313Z,3.98
2023-01-19T11:37:48.040Z,3.92
2023-01-19T11:40:18.893Z,3.97
2023-01-19T11:42:49.488Z,3.65
2023-01-19T11:45:20.348Z,4.02
2023-01-19T11:47:50.934Z,4.02
2023-01-19T11:50:21.685Z,3.63
2023-01-19T11:52:52.423Z,3.87
2023-01-19T11:55:23.243Z,3.87
2023-01-19T11:57:54.510Z,3.88
2023-01-19T12:00:24.509Z,3.93
2023-01-19T12:02:55.051Z,3.86
2023-01-19T12:05:25.731Z,3.92
2023-01-19T12:07:56.432Z,3.88
2023-01-19T12:10:27.191Z,3.84
2023-01-19T12:12:57.590Z,3.83
2023-01-19T12:15:28.402Z,3.96
2023-01-19T12:17:59.433Z,3.84
2023-01-19T12:20:29.765Z,3.73
2023-01-19T12:23:00.459Z,3.82
2023-01-19T12:25:31.217Z,3.89
2023-01-19T12:28:01.562Z,3.87
2023-01-19T12:30:32.323Z,3.87
2023-01-19T12:33:03.015Z,3.77
2023-01-19T12:35:33.759Z,3.77
2023-01-19T12:38:04.175Z,3.63
2023-01-19T12:40:34.930Z,3.53
2023-01-19T12:43:05.636Z,3.59
2023-01-19T12:45:36.403Z,3.73
2023-01-19T12:48:07.128Z,3.58
2023-01-19T12:50:38.063Z,3.55
2023-01-19T12:53:08.578Z,3.63
2023-01-19T12:55:39.097Z,3.7
2023-01-19T12:58:09.775Z,3.54
2023-01-19T13:00:40.530Z,3.75
2023-01-19T13:03:11.245Z,3.45
2023-01-19T13:05:42.004Z,3.5
2023-01-19T13:08:12.811Z,3.57
2023-01-19T13:10:43.466Z,3.42
2023-01-19T13:13:14.194Z,3.51
2023-01-19T13:15:44.981Z,3.37
2023-01-19T13:18:15.657Z,3.51
2023-01-19T13:20:46.414Z,3.48
2023-01-19T13:23:17.115Z,3.5
2023-01-19T13:25:47.881Z,3.4
2023-01-19T13:28:18.569Z,3.37
2023-01-19T13:30:49.588Z,3.58
2023-01-19T13:33:20.036Z,3.52
2023-01-19T13:35:50.773Z,3.45
2023-01-19T13:38:21.494Z,3.42
2023-01-19T13:40:52.351Z,3.48
2023-01-19T13:43:22.970Z,3.62
2023-01-19T13:45:53.823Z,3.41
2023-01-19T13:48:24.442Z,3.47
2023-01-19T13:50:55.192Z,3.53
2023-01-19T13:53:25.927Z,3.46
2023-01-19T13:55:56.362Z,3.52
2023-01-19T13:58:27.019Z,3.35
2023-01-19T14:00:57.819Z,3.48
2023-01-19T14:03:28.503Z,3.26
2023-01-19T14:05:59.314Z,3.39
2023-01-19T14:08:29.923Z,3.24
2023-01-19T14:11:00.667Z,3.14
2023-01-19T14:13:31.355Z,3.35
2023-01-19T14:16:02.121Z,3.13
2023-01-19T14:18:32.844Z,3.34
2023-01-19T14:21:03.639Z,3.41
2023-01-19T14:23:34.273Z,3.2
2023-01-19T14:26:05.064Z,3.46
2023-01-19T14:28:35.728Z,3.31
2023-01-19T14:31:06.522Z,3.24
2023-01-19T14:33:37.191Z,3.57
2023-01-19T14:36:07.987Z,3.63
2023-01-19T14:38:38.635Z,3.69
2023-01-19T14:41:09.403Z,3.76
2023-01-19T14:43:40.074Z,3.79
2023-01-19T14:46:10.879Z,3.51
2023-01-19T14:48:41.622Z,3.45
2023-01-19T14:51:12.256Z,3.45
2023-01-19T14:53:42.950Z,3.62
2023-01-19T14:56:13.569Z,3.54
2023-01-19T14:58:44.099Z,3.66
2023-01-19T15:01:14.994Z,3.75
2023-01-19T15:03:45.986Z,3.63
2023-01-19T15:06:16.298Z,3.39
2023-01-19T15:08:47.039Z,3.33
2023-01-19T15:11:17.795Z,3.41
2023-01-19T15:13:48.497Z,3.56
2023-01-19T15:16:19.338Z,3.63
2023-01-19T15:18:49.981Z,3.84
2023-01-19T15:21:20.767Z,3.84
2023-01-19T15:23:51.458Z,3.78
2023-01-19T15:26:22.250Z,3.74
2023-01-19T15:28:52.948Z,3.75
2023-01-19T15:31:23.843Z,3.61
2023-01-19T15:33:54.454Z,3.97
2023-01-19T15:36:25.207Z,4.03
2023-01-19T15:38:55.924Z,4.45
2023-01-19T15:41:26.733Z,4.59
2023-01-19T15:43:57.455Z,4.6
2023-01-19T15:46:28.206Z,4.66
2023-01-19T15:48:58.958Z,4.46
2023-01-19T15:51:29.763Z,4.47
2023-01-19T15:54:00.539Z,4.82
2023-01-19T15:56:31.305Z,5.05
2023-01-19T15:59:02.027Z,4.55
2023-01-19T16:01:33.492Z,4
2023-01-19T16:04:03.578Z,4.06
2023-01-19T16:06:34.443Z,3.81
2023-01-19T16:09:05.141Z,3.82
2023-01-19T16:11:35.965Z,3.76
2023-01-19T16:14:06.694Z,3.83
2023-01-19T16:16:37.593Z,3.82
2023-01-19T16:19:08.266Z,3.95
2023-01-19T16:21:39.054Z,3.87
2023-01-19T16:24:09.827Z,3.87
2023-01-19T16:26:40.651Z,3.87
2023-01-19T16:29:11.388Z,3.99
2023-01-19T16:31:42.321Z,3.86
2023-01-19T16:34:12.973Z,3.86
2023-01-19T16:36:43.783Z,3.66
2023-01-19T16:39:14.528Z,3.85
2023-01-19T16:41:45.359Z,3.85
2023-01-19T16:44:16.122Z,3.98
2023-01-19T16:46:46.902Z,3.9
2023-01-19T16:49:17.670Z,3.91
2023-01-19T16:51:48.474Z,3.72
2023-01-19T16:54:19.223Z,3.93
2023-01-19T16:56:50.065Z,3.72
2023-01-19T16:59:20.811Z,3.73
2023-01-19T17:01:51.848Z,3.6
2023-01-19T17:04:22.396Z,3.54
2023-01-19T17:06:53.213Z,3.6
2023-01-19T17:09:23.991Z,3.82
2023-01-19T17:11:54.937Z,3.6
2023-01-19T17:14:25.660Z,3.59
2023-01-19T17:16:56.466Z,3.52
2023-01-19T17:19:27.220Z,3.52
2023-01-19T17:21:58.048Z,3.65
2023-01-19T17:24:28.905Z,3.65
2023-01-19T17:26:59.664Z,3.72
2023-01-19T17:29:30.489Z,3.85
2023-01-19T17:32:01.265Z,3.85
2023-01-19T17:34:32.147Z,3.85
2023-01-19T17:37:03.145Z,3.79
2023-01-19T17:39:33.669Z,3.91
2023-01-19T17:42:04.498Z,3.92
2023-01-19T17:44:35.297Z,3.84
2023-01-19T17:47:06.101Z,3.91
2023-01-19T17:49:36.859Z,3.97
2023-01-19T17:52:07.723Z,3.83
2023-01-19T17:54:38.542Z,3.91
2023-01-19T17:57:09.373Z,3.96
2023-01-19T17:59:40.089Z,3.91
2023-01-19T18:02:11.123Z,3.98
2023-01-19T18:04:41.726Z,4.06
2023-01-19T18:07:12.116Z,4.11
2023-01-19T18:09:42.764Z,4.24
2023-01-19T18:12:13.585Z,4.52
2023-01-19T18:14:43.851Z,4.53
2023-01-19T18:17:14.666Z,4.76
2023-01-19T18:19:45.497Z,4.77
2023-01-19T18:22:16.323Z,4.7
2023-01-19T18:24:47.115Z,4.41
2023-01-19T18:27:17.990Z,4.41
2023-01-19T18:29:48.770Z,4.55
2023-01-19T18:32:19.640Z,5.23
2023-01-19T18:34:50.487Z,5.52
2023-01-19T18:37:21.234Z,5.59
2023-01-19T18:39:52.017Z,5.43
2023-01-19T18:42:22.893Z,5.47
2023-01-19T18:44:53.678Z,5.71
2023-01-19T18:47:24.542Z,5.54
2023-01-19T18:49:55.357Z,5.8
2023-01-19T18:52:26.211Z,5.82
2023-01-19T18:54:57.169Z,5.87
2023-01-19T18:57:27.950Z,5.9
2023-01-19T18:59:58.440Z,5.98
2023-01-19T19:02:29.162Z,5.85
2023-01-19T19:04:59.205Z,5.92
2023-01-19T19:07:29.548Z,5.87
2023-01-19T19:10:00.346Z,5.95
2023-01-19T19:12:30.696Z,6.02
2023-01-19T19:15:01.332Z,5.9
2023-01-19T19:17:31.531Z,5.87
2023-01-19T19:20:02.027Z,6.08
2023-01-19T19:22:32.646Z,6.1
2023-01-19T19:25:03.282Z,6.89
2023-01-19T19:27:33.509Z,6.86
2023-01-19T19:30:03.847Z,7.09
2023-01-19T19:32:34.002Z,6.89
2023-01-19T19:35:04.172Z,6.88
2023-01-19T19:37:34.766Z,6.64
2023-01-19T19:40:04.980Z,6.49
2023-01-19T19:42:35.143Z,6.52
2023-01-19T19:45:05.927Z,6.21
2023-01-19T19:47:36.212Z,6.24
2023-01-19T19:50:06.905Z,6.05
2023-01-19T19:52:37.361Z,6.11
2023-01-19T19:55:08.350Z,6.16
2023-01-19T19:57:38.370Z,6.16
2023-01-19T20:00:09.210Z,6.16
2023-01-19T20:02:39.817Z,6.01
2023-01-19T20:05:10.174Z,6.08
2023-01-19T20:07:40.401Z,6.05
2023-01-19T20:10:11.256Z,6.13
2023-01-19T20:12:41.343Z,6.05
2023-01-19T20:15:11.598Z,6.1
2023-01-19T20:17:41.983Z,6.11
2023-01-19T20:20:12.324Z,6.18
2023-01-19T20:22:42.736Z,6.31
2023-01-19T20:25:12.879Z,6.28
2023-01-19T20:27:45.035Z,7.06
2023-01-19T20:30:14.229Z,6.3
2023-01-19T20:32:44.454Z,6.08
2023-01-19T20:35:15.520Z,5.91
2023-01-19T20:37:45.846Z,6
2023-01-19T20:40:15.958Z,6.07
2023-01-19T20:42:46.549Z,5.97
2023-01-19T20:45:16.847Z,6.04
2023-01-19T20:47:46.979Z,6.04
2023-01-19T20:50:17.752Z,5.98
2023-01-19T20:52:48.014Z,6.05
2023-01-19T20:55:18.842Z,6.16
2023-01-19T20:57:49.581Z,6.25
2023-01-19T21:00:19.780Z,6.25
2023-01-19T21:02:50.183Z,6.24
2023-01-19T21:05:20.659Z,6.15
2023-01-19T21:07:50.649Z,6.22
2023-01-19T21:10:21.016Z,6.09
2023-01-19T21:12:51.306Z,6.11
2023-01-19T21:15:21.887Z,6.19
2023-01-19T21:17:52.587Z,6.05
2023-01-19T21:20:22.828Z,6.05
2023-01-19T21:22:53.026Z,5.94
2023-01-19T21:25:23.167Z,5.96
2023-01-19T21:27:53.423Z,5.93
2023-01-19T21:30:23.499Z,5.94
2023-01-19T21:32:54.178Z,5.95
2023-01-19T21:35:24.190Z,5.86
2023-01-19T21:37:54.988Z,5.86
2023-01-19T21:40:25.697Z,5.75
2023-01-19T21:42:56.054Z,5.83
2023-01-19T21:45:26.254Z,5.89
2023-01-19T21:47:56.593Z,6.07
2023-01-19T21:50:27.242Z,6.19
2023-01-19T21:52:57.644Z,6.1
2023-01-19T21:55:28.485Z,6.26
2023-01-19T21:57:58.797Z,5.83
2023-01-19T22:00:29.588Z,5.73
2023-01-19T22:03:04.180Z,5.81
2023-01-19T22:05:30.781Z,5.52
2023-01-19T22:08:01.677Z,5.66
2023-01-19T22:10:31.681Z,5.77
2023-01-19T22:13:02.593Z,5.76
2023-01-19T22:15:33.073Z,5.8
2023-01-19T22:18:03.757Z,5.87
2023-01-19T22:20:34.508Z,5.97
2023-01-19T22:23:05.307Z,5.84
2023-01-19T22:25:35.580Z,5.94
2023-01-19T22:28:06.313Z,5.97
2023-01-19T22:30:36.663Z,5.95
2023-01-19T22:33:06.968Z,6.03
2023-01-19T22:35:37.356Z,6.1
2023-01-19T22:38:07.572Z,6
2023-01-19T22:40:37.771Z,5.88
2023-01-19T22:43:08.032Z,5.98
2023-01-19T22:45:38.947Z,5.94
2023-01-19T22:48:09.604Z,5.93
2023-01-19T22:50:39.779Z,5.62
2023-01-19T22:53:09.967Z,5.79
2023-01-19T22:55:40.265Z,5.63
2023-01-19T22:58:10.403Z,5.61
2023-01-19T23:00:40.479Z,5.8
2023-01-19T23:03:10.779Z,5.78
2023-01-19T23:05:41.660Z,5.77
2023-01-19T23:08:12.229Z,5.66
2023-01-19T23:10:42.785Z,5.74
2023-01-19T23:13:13.486Z,5.87
2023-01-19T23:15:44.087Z,5.98
2023-01-19T23:18:14.177Z,7.65
2023-01-19T23:20:44.570Z,6.09
2023-01-19T23:23:15.060Z,5.75
2023-01-19T23:25:45.864Z,5.78
2023-01-19T23:28:16.341Z,5.81
2023-01-19T23:30:46.843Z,5.69
2023-01-19T23:33:17.578Z,5.8
2023-01-19T23:35:48.009Z,5.85
2023-01-19T23:38:18.192Z,5.52
2023-01-19T23:40:48.536Z,5.59
2023-01-19T23:43:18.855Z,5.69
2023-01-19T23:45:49.208Z,5.58
2023-01-19T23:48:19.582Z,5.79
2023-01-19T23:50:49.882Z,5.99
2023-01-19T23:53:20.805Z,5.78
2023-01-19T23:55:51.507Z,5.84
2023-01-19T23:58:22.309Z,5.4
